createdAt,value
2019-05-05T00:00:46.387Z,97.86
2019-05-05T00:01:46.267Z,97.97
2019-05-05T00:02:46.277Z,97.86
2019-05-05T00:03:46.280Z,97.65
2019-05-05T00:04:46.234Z,97.97
2019-05-05T00:05:46.319Z,97.92
2019-05-05T00:06:46.221Z,98.07
2019-05-05T00:07:46.221Z,97.75
2019-05-05T00:08:46.190Z,97.92
2019-05-05T00:09:46.191Z,97.81
2019-05-05T00:10:46.171Z,97.81
2019-05-05T00:11:46.236Z,97.61
2019-05-05T00:12:46.452Z,97.92
2019-05-05T00:13:46.172Z,98.02
2019-05-05T00:14:46.113Z,97.81
2019-05-05T00:15:46.204Z,97.50
2019-05-05T00:16:46.094Z,97.92
2019-05-05T00:17:46.147Z,97.81
2019-05-05T00:18:46.083Z,97.61
2019-05-05T00:19:46.175Z,97.61
2019-05-05T00:20:46.045Z,97.92
2019-05-05T00:21:46.116Z,97.81
2019-05-05T00:22:46.028Z,97.71
2019-05-05T00:23:46.087Z,98.13
2019-05-05T00:24:46.008Z,98.13
2019-05-05T00:25:46.078Z,98.13
2019-05-05T00:26:46.153Z,97.09
2019-05-05T00:27:46.018Z,97.50
2019-05-05T00:28:45.981Z,97.81
2019-05-05T00:29:45.939Z,97.50
2019-05-05T00:30:45.939Z,97.67
2019-05-05T00:31:46.000Z,97.88
2019-05-05T00:32:45.920Z,97.67
2019-05-05T00:33:45.977Z,97.88
2019-05-05T00:34:45.993Z,97.77
2019-05-05T00:35:45.882Z,97.77
2019-05-05T00:36:45.936Z,98.04
2019-05-05T00:37:45.853Z,98.19
2019-05-05T00:38:45.904Z,97.35
2019-05-05T00:39:45.844Z,97.72
2019-05-05T00:40:45.841Z,97.67
2019-05-05T00:41:45.865Z,97.72
2019-05-05T00:42:45.795Z,97.14
2019-05-05T00:43:45.856Z,97.20
2019-05-05T00:44:45.777Z,97.20
2019-05-05T00:45:45.760Z,97.20
2019-05-05T00:46:45.757Z,97.10
2019-05-05T00:47:45.777Z,96.69
2019-05-05T00:48:46.026Z,97.77
2019-05-05T00:49:49.105Z,96.89
2019-05-05T00:50:45.710Z,96.62
2019-05-05T00:51:45.749Z,96.58
2019-05-05T00:52:45.679Z,96.58
2019-05-05T00:53:45.788Z,97.77
2019-05-05T00:54:45.679Z,97.41
2019-05-05T00:55:46.740Z,97.52
2019-05-05T00:56:45.691Z,97.67
2019-05-05T00:57:45.631Z,97.31
2019-05-05T00:58:45.730Z,97.20
2019-05-05T00:59:45.611Z,97.20
2019-05-05T01:00:45.662Z,97.20
2019-05-05T01:01:45.584Z,97.31
2019-05-05T01:02:45.593Z,97.10
2019-05-05T01:03:45.556Z,97.10
2019-05-05T01:04:45.575Z,97.25
2019-05-05T01:05:45.545Z,97.31
2019-05-05T01:06:45.565Z,97.67
2019-05-05T01:07:45.536Z,96.73
2019-05-05T01:08:45.506Z,96.42
2019-05-05T01:09:45.526Z,96.67
2019-05-05T01:10:45.476Z,96.77
2019-05-05T01:11:45.514Z,96.77
2019-05-05T01:12:45.477Z,96.56
2019-05-05T01:13:45.647Z,96.56
2019-05-05T01:14:47.498Z,96.77
2019-05-05T01:15:45.428Z,97.40
2019-05-05T01:16:45.672Z,97.40
2019-05-05T01:17:45.405Z,97.40
2019-05-05T01:18:45.380Z,97.40
2019-05-05T01:19:53.894Z,97.34
2019-05-05T01:20:46.370Z,97.34
2019-05-05T01:21:45.524Z,97.86
2019-05-05T01:22:45.341Z,97.75
2019-05-05T01:23:45.638Z,97.75
2019-05-05T01:24:45.927Z,97.97
2019-05-05T01:25:48.710Z,97.97
2019-05-05T01:26:45.297Z,98.18
2019-05-05T01:27:45.446Z,98.07
2019-05-05T01:28:45.265Z,97.97
2019-05-05T01:29:45.333Z,97.55
2019-05-05T01:30:45.305Z,97.97
2019-05-05T01:31:45.328Z,98.07
2019-05-05T01:32:45.336Z,98.38
2019-05-05T01:33:45.216Z,98.07
2019-05-05T01:34:45.226Z,98.38
2019-05-05T01:35:45.188Z,98.49
2019-05-05T01:36:45.284Z,98.38
2019-05-05T01:37:45.168Z,98.44
2019-05-05T01:38:45.250Z,98.49
2019-05-05T01:39:45.313Z,98.23
2019-05-05T01:40:45.180Z,98.34
2019-05-05T01:41:45.307Z,98.86
2019-05-05T01:42:45.221Z,98.55
2019-05-05T01:43:45.301Z,98.55
2019-05-05T01:44:45.194Z,98.55
2019-05-05T01:45:45.360Z,98.86
2019-05-05T01:46:45.082Z,99.27
2019-05-05T01:47:45.367Z,99.27
2019-05-05T01:48:45.127Z,99.17
2019-05-05T01:49:45.487Z,99.44
2019-05-05T01:50:45.342Z,98.71
2019-05-05T01:51:45.004Z,98.71
2019-05-05T01:52:45.186Z,99.13
2019-05-05T01:53:44.996Z,99.02
2019-05-05T01:54:45.025Z,98.29
2019-05-05T01:55:45.218Z,98.50
2019-05-05T01:56:44.967Z,98.82
2019-05-05T01:57:45.153Z,98.60
2019-05-05T01:58:44.997Z,98.46
2019-05-05T01:59:45.013Z,98.50
2019-05-05T02:00:45.267Z,98.82
2019-05-05T02:01:45.928Z,98.71
2019-05-05T02:02:45.064Z,98.29
2019-05-05T02:03:44.939Z,98.08
2019-05-05T02:04:44.962Z,98.29
2019-05-05T02:05:45.319Z,98.25
2019-05-05T02:06:44.841Z,98.08
2019-05-05T02:07:45.116Z,98.29
2019-05-05T02:08:45.537Z,98.25
2019-05-05T02:09:45.119Z,98.77
2019-05-05T02:10:45.458Z,98.66
2019-05-05T02:11:45.377Z,98.56
2019-05-05T02:12:44.874Z,98.66
2019-05-05T02:13:45.114Z,98.14
2019-05-05T02:14:44.794Z,98.04
2019-05-05T02:15:44.764Z,98.56
2019-05-05T02:16:45.253Z,98.25
2019-05-05T02:17:44.777Z,98.14
2019-05-05T02:18:45.117Z,98.04
2019-05-05T02:19:44.686Z,98.25
2019-05-05T02:20:45.213Z,98.14
2019-05-05T02:21:45.302Z,97.99
2019-05-05T02:22:44.738Z,97.83
2019-05-05T02:23:45.294Z,97.94
2019-05-05T02:24:44.683Z,97.68
2019-05-05T02:25:44.832Z,97.99
2019-05-05T02:26:45.531Z,97.89
2019-05-05T02:27:44.747Z,97.99
2019-05-05T02:28:45.336Z,97.78
2019-05-05T02:29:44.752Z,98.10
2019-05-05T02:30:46.453Z,97.89
2019-05-05T02:31:45.427Z,98.20
2019-05-05T02:32:45.353Z,98.10
2019-05-05T02:33:46.065Z,98.20
2019-05-05T02:34:45.676Z,97.89
2019-05-05T02:35:45.897Z,97.99
2019-05-05T02:36:45.958Z,97.89
2019-05-05T02:37:45.697Z,97.99
2019-05-05T02:38:46.130Z,97.68
2019-05-05T02:39:53.138Z,98.25
2019-05-05T02:40:45.475Z,97.95
2019-05-05T02:41:45.557Z,98.20
2019-05-05T02:42:45.583Z,98.20
2019-05-05T02:43:45.054Z,97.37
2019-05-05T02:44:45.617Z,97.68
2019-05-05T02:45:44.409Z,97.47
2019-05-05T02:46:45.488Z,97.58
2019-05-05T02:47:45.089Z,97.68
2019-05-05T02:48:45.083Z,97.58
2019-05-05T02:49:45.394Z,97.53
2019-05-05T02:50:54.916Z,97.89
2019-05-05T02:51:45.341Z,97.74
2019-05-05T02:52:44.380Z,97.78
2019-05-05T02:53:44.651Z,97.58
2019-05-05T02:54:44.315Z,97.68
2019-05-05T02:55:44.322Z,97.47
2019-05-05T02:56:45.368Z,97.68
2019-05-05T02:57:44.262Z,97.58
2019-05-05T02:58:44.462Z,97.68
2019-05-05T02:59:44.253Z,97.58
2019-05-05T03:00:44.315Z,97.58
2019-05-05T03:01:44.731Z,97.68
2019-05-05T03:02:44.214Z,97.78
2019-05-05T03:03:44.215Z,97.58
2019-05-05T03:04:44.415Z,97.58
2019-05-05T03:05:44.255Z,97.68
2019-05-05T03:06:44.187Z,97.68
2019-05-05T03:07:44.186Z,97.68
2019-05-05T03:08:44.142Z,97.58
2019-05-05T03:09:44.227Z,97.47
2019-05-05T03:10:44.346Z,97.27
2019-05-05T03:11:44.209Z,97.89
2019-05-05T03:12:44.129Z,98.20
2019-05-05T03:13:44.298Z,97.99
2019-05-05T03:14:44.648Z,97.99
2019-05-05T03:15:44.184Z,97.89
2019-05-05T03:16:44.141Z,97.74
2019-05-05T03:17:44.540Z,97.68
2019-05-05T03:18:44.035Z,97.89
2019-05-05T03:19:44.475Z,97.99
2019-05-05T03:20:44.012Z,97.74
2019-05-05T03:21:44.257Z,97.64
2019-05-05T03:22:43.983Z,97.64
2019-05-05T03:23:44.123Z,97.89
2019-05-05T03:24:44.693Z,97.95
2019-05-05T03:25:44.154Z,97.43
2019-05-05T03:26:44.448Z,97.64
2019-05-05T03:27:44.539Z,97.64
2019-05-05T03:28:43.963Z,98.16
2019-05-05T03:29:44.320Z,97.43
2019-05-05T03:30:45.338Z,97.85
2019-05-05T03:31:45.743Z,97.64
2019-05-05T03:32:45.569Z,97.74
2019-05-05T03:33:45.844Z,97.95
2019-05-05T03:34:44.560Z,97.85
2019-05-05T03:35:44.919Z,98.16
2019-05-05T03:36:44.245Z,98.26
2019-05-05T03:37:44.628Z,98.26
2019-05-05T03:38:44.387Z,98.05
2019-05-05T03:39:44.499Z,97.95
2019-05-05T03:40:43.770Z,97.85
2019-05-05T03:41:44.871Z,97.64
2019-05-05T03:42:44.260Z,97.74
2019-05-05T03:43:43.842Z,97.74
2019-05-05T03:44:44.089Z,97.64
2019-05-05T03:45:44.549Z,98.36
2019-05-05T03:46:43.972Z,97.53
2019-05-05T03:47:44.145Z,97.85
2019-05-05T03:48:43.889Z,97.43
2019-05-05T03:49:44.225Z,98.26
2019-05-05T03:50:44.647Z,98.01
2019-05-05T03:51:43.960Z,97.64
2019-05-05T03:52:43.896Z,98.26
2019-05-05T03:53:44.152Z,98.16
2019-05-05T03:54:43.685Z,97.74
2019-05-05T03:55:44.034Z,98.05
2019-05-05T03:56:44.282Z,97.64
2019-05-05T03:57:44.490Z,97.64
2019-05-05T03:58:43.770Z,97.64
2019-05-05T03:59:44.313Z,97.53
2019-05-05T04:00:43.579Z,97.43
2019-05-05T04:01:44.036Z,97.85
2019-05-05T04:02:44.507Z,97.64
2019-05-05T04:03:43.600Z,97.22
2019-05-05T04:04:44.129Z,97.43
2019-05-05T04:05:44.455Z,97.85
2019-05-05T04:06:44.591Z,98.05
2019-05-05T04:07:44.013Z,98.16
2019-05-05T04:08:44.490Z,98.16
2019-05-05T04:09:43.849Z,98.16
2019-05-05T04:10:43.952Z,98.22
2019-05-05T04:11:44.410Z,98.22
2019-05-05T04:12:43.603Z,97.91
2019-05-05T04:13:43.835Z,97.80
2019-05-05T04:14:44.028Z,97.49
2019-05-05T04:15:44.201Z,97.49
2019-05-05T04:16:44.406Z,97.49
2019-05-05T04:17:44.293Z,97.64
2019-05-05T04:18:43.589Z,97.59
2019-05-05T04:19:43.674Z,97.59
2019-05-05T04:20:44.169Z,97.49
2019-05-05T04:21:44.876Z,97.70
2019-05-05T04:22:43.587Z,97.17
2019-05-05T04:23:44.190Z,97.80
2019-05-05T04:24:43.676Z,97.17
2019-05-05T04:25:44.319Z,97.17
2019-05-05T04:26:44.073Z,97.17
2019-05-05T04:27:44.511Z,98.01
2019-05-05T04:28:43.693Z,97.44
2019-05-05T04:29:43.972Z,97.59
2019-05-05T04:30:44.463Z,97.80
2019-05-05T04:31:43.587Z,97.65
2019-05-05T04:32:43.951Z,97.65
2019-05-05T04:33:44.493Z,97.44
2019-05-05T04:34:43.896Z,97.34
2019-05-05T04:35:44.433Z,97.65
2019-05-05T04:36:44.441Z,97.55
2019-05-05T04:37:43.859Z,97.55
2019-05-05T04:38:43.969Z,97.44
2019-05-05T04:39:44.422Z,97.65
2019-05-05T04:40:43.632Z,97.55
2019-05-05T04:41:44.062Z,97.13
2019-05-05T04:42:44.052Z,97.50
2019-05-05T04:43:44.190Z,97.75
2019-05-05T04:44:44.974Z,97.50
2019-05-05T04:45:43.594Z,97.44
2019-05-05T04:46:44.176Z,97.50
2019-05-05T04:47:43.598Z,97.50
2019-05-05T04:48:43.918Z,97.81
2019-05-05T04:49:44.595Z,97.50
2019-05-05T04:50:44.103Z,97.50
2019-05-05T04:51:47.630Z,97.30
2019-05-05T04:52:44.061Z,96.88
2019-05-05T04:53:43.866Z,96.88
2019-05-05T04:54:43.911Z,96.88
2019-05-05T04:55:44.286Z,96.98
2019-05-05T04:56:44.790Z,97.04
2019-05-05T04:57:43.671Z,97.04
2019-05-05T04:58:44.015Z,97.25
2019-05-05T04:59:44.450Z,96.21
2019-05-05T05:00:44.240Z,97.25
2019-05-05T05:01:43.990Z,96.42
2019-05-05T05:02:43.650Z,96.52
2019-05-05T05:03:43.906Z,96.00
2019-05-05T05:04:44.076Z,96.21
2019-05-05T05:05:44.191Z,96.42
2019-05-05T05:06:43.815Z,96.31
2019-05-05T05:07:43.924Z,96.06
2019-05-05T05:08:44.349Z,96.11
2019-05-05T05:09:43.469Z,95.96
2019-05-05T05:10:43.795Z,95.38
2019-05-05T05:11:44.316Z,96.17
2019-05-05T05:12:43.594Z,95.75
2019-05-05T05:13:44.062Z,95.65
2019-05-05T05:14:44.112Z,95.86
2019-05-05T05:15:44.664Z,95.54
2019-05-05T05:16:43.726Z,95.75
2019-05-05T05:17:44.303Z,95.44
2019-05-05T05:18:44.597Z,95.86
2019-05-05T05:19:43.689Z,95.54
2019-05-05T05:20:44.295Z,94.92
2019-05-05T05:21:43.611Z,94.20
2019-05-05T05:22:43.974Z,94.30
2019-05-05T05:23:44.403Z,94.61
2019-05-05T05:24:44.546Z,94.61
2019-05-05T05:25:43.870Z,94.40
2019-05-05T05:26:44.143Z,94.71
2019-05-05T05:27:44.311Z,94.05
2019-05-05T05:28:44.606Z,94.05
2019-05-05T05:29:43.776Z,94.26
2019-05-05T05:30:43.926Z,93.95
2019-05-05T05:31:44.301Z,93.59
2019-05-05T05:32:44.364Z,93.38
2019-05-05T05:33:43.641Z,93.70
2019-05-05T05:34:43.651Z,93.90
2019-05-05T05:35:44.149Z,93.49
2019-05-05T05:36:44.320Z,92.55
2019-05-05T05:37:44.544Z,92.86
2019-05-05T05:38:43.753Z,92.66
2019-05-05T05:39:44.029Z,92.55
2019-05-05T05:40:44.298Z,92.35
2019-05-05T05:41:43.568Z,91.31
2019-05-05T05:42:43.959Z,91.31
2019-05-05T05:43:43.963Z,91.52
2019-05-05T05:44:44.369Z,92.03
2019-05-05T05:45:43.628Z,92.35
2019-05-05T05:46:43.884Z,92.66
2019-05-05T05:47:44.126Z,92.66
2019-05-05T05:48:43.438Z,92.51
2019-05-05T05:49:44.009Z,92.66
2019-05-05T05:50:44.216Z,92.51
2019-05-05T05:51:44.590Z,92.51
2019-05-05T05:52:43.628Z,92.20
2019-05-05T05:53:43.901Z,92.16
2019-05-05T05:54:44.115Z,91.95
2019-05-05T05:55:42.256Z,91.33
2019-05-05T05:56:42.287Z,90.91
2019-05-05T05:57:43.922Z,88.84
2019-05-05T05:58:44.098Z,88.63
2019-05-05T05:59:44.345Z,88.53
2019-05-05T06:00:44.088Z,88.63
2019-05-05T06:01:43.720Z,89.04
2019-05-05T06:02:43.939Z,88.88
2019-05-05T06:03:44.220Z,88.46
2019-05-05T06:04:42.142Z,88.01
2019-05-05T06:05:43.567Z,87.70
2019-05-05T06:06:43.872Z,86.45
2019-05-05T06:07:44.180Z,86.55
2019-05-05T06:08:43.961Z,86.31
2019-05-05T06:09:43.745Z,86.00
2019-05-05T06:10:44.170Z,84.65
2019-05-05T06:11:43.691Z,83.51
2019-05-05T06:12:42.073Z,84.23
2019-05-05T06:13:44.011Z,84.61
2019-05-05T06:14:42.036Z,83.31
2019-05-05T06:15:44.169Z,83.20
2019-05-05T06:16:42.045Z,82.95
2019-05-05T06:17:43.499Z,82.37
2019-05-05T06:18:43.719Z,83.68
2019-05-05T06:19:44.422Z,83.37
2019-05-05T06:20:41.979Z,84.06
2019-05-05T06:21:43.848Z,82.92
2019-05-05T06:22:41.958Z,80.12
2019-05-05T06:23:43.764Z,78.64
2019-05-05T06:24:43.773Z,79.09
2019-05-05T06:25:44.043Z,80.02
2019-05-05T06:26:44.369Z,81.47
2019-05-05T06:27:42.002Z,80.71
2019-05-05T06:28:41.881Z,80.19
2019-05-05T06:29:43.865Z,80.71
2019-05-05T06:30:44.096Z,80.81
2019-05-05T06:31:41.832Z,80.67
2019-05-05T06:32:43.702Z,78.19
2019-05-05T06:33:43.693Z,78.43
2019-05-05T06:34:41.875Z,80.19
2019-05-05T06:35:41.784Z,79.16
2019-05-05T06:36:41.807Z,77.70
2019-05-05T06:37:43.849Z,77.60
2019-05-05T06:38:43.629Z,78.64
2019-05-05T06:39:43.831Z,77.29
2019-05-05T06:40:41.786Z,76.05
2019-05-05T06:41:43.431Z,76.36
2019-05-05T06:42:43.413Z,77.60
2019-05-05T06:43:43.995Z,77.39
2019-05-05T06:44:41.698Z,80.22
2019-05-05T06:45:41.719Z,77.70
2019-05-05T06:46:41.668Z,77.74
2019-05-05T06:47:41.660Z,76.09
2019-05-05T06:48:43.727Z,77.43
2019-05-05T06:49:43.617Z,77.50
2019-05-05T06:50:43.702Z,77.43
2019-05-05T06:51:41.682Z,76.29
2019-05-05T06:52:44.595Z,77.43
2019-05-05T06:53:43.545Z,77.09
2019-05-05T06:54:43.673Z,77.19
2019-05-05T06:55:41.587Z,78.02
2019-05-05T06:56:41.613Z,79.02
2019-05-05T06:57:41.534Z,80.01
2019-05-05T06:58:41.604Z,79.39
2019-05-05T06:59:43.712Z,79.46
2019-05-05T07:00:43.940Z,79.11
2019-05-05T07:01:41.515Z,78.91
2019-05-05T07:02:41.585Z,77.25
2019-05-05T07:03:43.712Z,76.18
2019-05-05T07:04:41.467Z,75.98
2019-05-05T07:05:43.516Z,75.77
2019-05-05T07:06:53.834Z,74.50
2019-05-05T07:07:43.547Z,74.08
2019-05-05T07:08:41.487Z,72.40
2019-05-05T07:09:41.408Z,70.99
2019-05-05T07:10:41.419Z,71.06
2019-05-05T07:11:43.532Z,69.82
2019-05-05T07:12:41.459Z,70.54
2019-05-05T07:13:41.362Z,70.13
2019-05-05T07:14:41.391Z,70.17
2019-05-05T07:15:43.585Z,70.65
2019-05-05T07:16:41.331Z,70.34
2019-05-05T07:17:41.402Z,71.20
2019-05-05T07:18:41.293Z,69.93
2019-05-05T07:19:41.334Z,69.85
2019-05-05T07:20:41.273Z,70.65
2019-05-05T07:21:43.509Z,70.55
2019-05-05T07:22:41.334Z,65.86
2019-05-05T07:23:41.234Z,64.04
2019-05-05T07:24:43.500Z,63.84
2019-05-05T07:25:43.744Z,63.64
2019-05-05T07:26:41.205Z,62.65
2019-05-05T07:27:41.208Z,64.40
2019-05-05T07:28:41.246Z,62.11
2019-05-05T07:29:41.179Z,61.52
2019-05-05T07:30:41.189Z,61.72
2019-05-05T07:31:41.149Z,61.35
2019-05-05T07:32:41.148Z,63.64
2019-05-05T07:33:43.811Z,62.19
2019-05-05T07:34:41.120Z,60.86
2019-05-05T07:35:53.347Z,61.93
2019-05-05T07:36:44.329Z,61.11
2019-05-05T07:37:41.101Z,60.26
2019-05-05T07:38:41.070Z,61.11
2019-05-05T07:39:41.092Z,61.55
2019-05-05T07:40:41.041Z,61.79
2019-05-05T07:41:41.132Z,63.53
2019-05-05T07:42:41.043Z,64.36
2019-05-05T07:43:41.013Z,62.85
2019-05-05T07:44:41.034Z,62.01
2019-05-05T07:45:40.994Z,59.62
2019-05-05T07:46:41.074Z,59.92
2019-05-05T07:47:40.974Z,59.72
2019-05-05T07:48:40.956Z,59.92
2019-05-05T07:49:40.956Z,58.74
2019-05-05T07:50:41.046Z,57.28
2019-05-05T07:51:40.983Z,58.35
2019-05-05T07:52:41.018Z,58.58
2019-05-05T07:53:40.909Z,58.51
2019-05-05T07:54:40.898Z,58.44
2019-05-05T07:55:40.981Z,60.33
2019-05-05T07:56:40.859Z,60.16
2019-05-05T07:57:40.970Z,61.49
2019-05-05T07:58:40.851Z,61.60
2019-05-05T07:59:40.832Z,61.08
2019-05-05T08:00:40.810Z,62.08
2019-05-05T08:01:43.427Z,60.16
2019-05-05T08:02:43.910Z,60.05
2019-05-05T08:03:40.822Z,59.34
2019-05-05T08:04:40.773Z,60.23
2019-05-05T08:05:40.763Z,61.33
2019-05-05T08:06:41.874Z,60.72
2019-05-05T08:07:40.724Z,59.46
2019-05-05T08:08:40.805Z,59.92
2019-05-05T08:09:40.726Z,59.58
2019-05-05T08:10:40.716Z,58.45
2019-05-05T08:11:40.689Z,55.62
2019-05-05T08:12:40.737Z,54.74
2019-05-05T08:13:40.687Z,56.59
2019-05-05T08:14:40.777Z,57.54
2019-05-05T08:15:56.004Z,58.77
2019-05-05T08:16:41.628Z,58.90
2019-05-05T08:17:41.699Z,59.95
2019-05-05T08:18:40.630Z,56.77
2019-05-05T08:19:40.709Z,56.56
2019-05-05T08:20:40.585Z,56.05
2019-05-05T08:21:40.655Z,58.57
2019-05-05T08:22:40.571Z,58.47
2019-05-05T08:23:40.621Z,57.00
2019-05-05T08:24:40.541Z,56.59
2019-05-05T08:25:40.612Z,56.64
2019-05-05T08:26:40.577Z,58.80
2019-05-05T08:27:40.503Z,57.20
2019-05-05T08:28:40.564Z,56.51
2019-05-05T08:29:40.500Z,53.72
2019-05-05T08:30:40.566Z,54.54
2019-05-05T08:31:40.455Z,52.37
2019-05-05T08:32:40.446Z,53.36
2019-05-05T08:33:40.498Z,49.87
2019-05-05T08:34:54.388Z,47.89
2019-05-05T08:35:41.420Z,47.24
2019-05-05T08:36:40.467Z,46.09
2019-05-05T08:37:40.388Z,47.30
2019-05-05T08:38:40.409Z,42.37
2019-05-05T08:39:40.371Z,42.69
2019-05-05T08:40:40.439Z,43.98
2019-05-05T08:41:40.340Z,44.40
2019-05-05T08:42:40.380Z,45.06
2019-05-05T08:43:40.320Z,46.34
2019-05-05T08:44:40.351Z,46.52
2019-05-05T08:45:40.312Z,46.22
2019-05-05T08:46:40.352Z,48.22
2019-05-05T08:47:40.275Z,49.49
2019-05-05T08:48:40.283Z,48.57
2019-05-05T08:49:40.264Z,49.08
2019-05-05T08:50:40.325Z,48.72
2019-05-05T08:51:40.224Z,47.63
2019-05-05T08:52:40.268Z,45.75
2019-05-05T08:53:44.943Z,45.36
2019-05-05T08:54:41.226Z,43.24
2019-05-05T08:55:40.196Z,40.59
2019-05-05T08:56:40.228Z,38.93
2019-05-05T08:57:40.167Z,39.07
2019-05-05T08:58:40.267Z,39.93
2019-05-05T08:59:40.153Z,39.37
2019-05-05T09:00:40.202Z,39.28
2019-05-05T09:01:40.119Z,39.59
2019-05-05T09:02:40.142Z,41.19
2019-05-05T09:03:40.090Z,44.81
2019-05-05T09:04:44.545Z,45.81
2019-05-05T09:05:40.062Z,47.29
2019-05-05T09:06:40.112Z,47.85
2019-05-05T09:07:40.034Z,49.09
2019-05-05T09:08:40.143Z,49.83
2019-05-05T09:09:40.103Z,52.00
2019-05-05T09:10:39.986Z,51.01
2019-05-05T09:11:40.035Z,51.95
2019-05-05T09:12:40.015Z,54.74
2019-05-05T09:13:39.984Z,55.59
2019-05-05T09:14:40.005Z,55.08
2019-05-05T09:15:39.956Z,56.23
2019-05-05T09:16:40.248Z,57.28
2019-05-05T09:17:39.927Z,56.82
2019-05-05T09:18:40.029Z,59.36
2019-05-05T09:19:39.939Z,59.67
2019-05-05T09:20:39.960Z,58.13
2019-05-05T09:21:39.881Z,57.21
2019-05-05T09:22:39.901Z,57.00
2019-05-05T09:23:39.860Z,59.03
2019-05-05T09:24:40.013Z,58.11
2019-05-05T09:25:39.854Z,57.77
2019-05-05T09:26:39.872Z,56.64
2019-05-05T09:27:39.813Z,54.97
2019-05-05T09:28:39.903Z,54.66
2019-05-05T09:29:39.795Z,55.05
2019-05-05T09:30:39.893Z,56.56
2019-05-05T09:31:39.763Z,54.21
2019-05-05T09:32:39.760Z,52.44
2019-05-05T09:33:39.844Z,45.83
2019-05-05T09:34:39.744Z,40.63
2019-05-05T09:35:39.898Z,38.24
2019-05-05T09:36:39.805Z,35.70
2019-05-05T09:37:39.696Z,33.31
2019-05-05T09:38:39.687Z,31.73
2019-05-05T09:39:39.747Z,30.01
2019-05-05T09:40:39.682Z,31.29
2019-05-05T09:41:40.709Z,33.20
2019-05-05T09:42:39.649Z,33.50
2019-05-05T09:43:39.630Z,37.28
2019-05-05T09:44:39.691Z,40.73
2019-05-05T09:45:39.623Z,39.78
2019-05-05T09:46:39.792Z,40.84
2019-05-05T09:47:39.581Z,41.90
2019-05-05T09:48:39.571Z,41.72
2019-05-05T09:49:39.573Z,43.73
2019-05-05T09:50:39.653Z,46.57
2019-05-05T09:51:39.545Z,47.78
2019-05-05T09:52:39.633Z,49.22
2019-05-05T09:53:39.514Z,48.03
2019-05-05T09:54:39.576Z,48.98
2019-05-05T09:55:39.505Z,48.18
2019-05-05T09:56:39.507Z,49.82
2019-05-05T09:57:39.466Z,49.33
2019-05-05T09:58:39.546Z,49.51
2019-05-05T09:59:40.280Z,47.93
2019-05-05T10:00:39.447Z,47.55
2019-05-05T10:01:39.448Z,48.39
2019-05-05T10:02:39.419Z,49.72
2019-05-05T10:03:40.510Z,46.93
2019-05-05T10:04:39.450Z,46.70
2019-05-05T10:05:39.389Z,46.52
2019-05-05T10:06:41.446Z,48.85
2019-05-05T10:07:39.362Z,46.39
2019-05-05T10:08:39.422Z,46.78
2019-05-05T10:09:39.341Z,45.76
2019-05-05T10:10:39.342Z,46.37
2019-05-05T10:11:39.323Z,45.68
2019-05-05T10:12:39.293Z,43.22
2019-05-05T10:13:39.365Z,44.45
2019-05-05T10:14:39.284Z,41.99
2019-05-05T10:15:39.285Z,44.23
2019-05-05T10:16:39.237Z,42.28
2019-05-05T10:17:39.336Z,42.57
2019-05-05T10:18:39.235Z,43.16
2019-05-05T10:19:40.296Z,42.26
2019-05-05T10:20:39.226Z,43.67
2019-05-05T10:21:39.188Z,43.06
2019-05-05T10:22:39.279Z,42.26
2019-05-05T10:23:39.180Z,43.57
2019-05-05T10:24:39.209Z,41.85
2019-05-05T10:25:39.170Z,41.03
2019-05-05T10:26:39.146Z,41.83
2019-05-05T10:27:44.959Z,42.46
2019-05-05T10:28:40.110Z,43.37
2019-05-05T10:29:39.152Z,42.03
2019-05-05T10:30:39.112Z,41.61
2019-05-05T10:31:39.183Z,44.98
2019-05-05T10:32:39.053Z,44.59
2019-05-05T10:33:39.123Z,43.30
2019-05-05T10:34:39.054Z,41.89
2019-05-05T10:35:40.134Z,41.60
2019-05-05T10:36:39.014Z,43.75
2019-05-05T10:37:39.116Z,43.65
2019-05-05T10:38:39.006Z,43.22
2019-05-05T10:39:39.036Z,43.61
2019-05-05T10:40:38.978Z,42.99
2019-05-05T10:41:40.028Z,43.40
2019-05-05T10:42:38.958Z,41.97
2019-05-05T10:43:38.952Z,42.79
2019-05-05T10:44:38.969Z,41.34
2019-05-05T10:45:38.923Z,41.63
2019-05-05T10:46:38.959Z,42.53
2019-05-05T10:47:38.900Z,41.89
2019-05-05T10:48:38.888Z,43.12
2019-05-05T10:49:39.932Z,40.87
2019-05-05T10:50:38.872Z,43.32
2019-05-05T10:51:43.908Z,41.89
2019-05-05T10:52:38.833Z,41.79
2019-05-05T10:53:38.883Z,43.41
2019-05-05T10:54:44.244Z,41.18
2019-05-05T10:55:39.844Z,43.35
2019-05-05T10:56:38.807Z,43.14
2019-05-05T10:57:38.858Z,42.24
2019-05-05T10:58:38.776Z,43.88
2019-05-05T10:59:38.766Z,43.57
2019-05-05T11:00:38.857Z,43.37
2019-05-05T11:01:38.748Z,43.88
2019-05-05T11:02:39.819Z,40.72
2019-05-05T11:03:38.718Z,40.72
2019-05-05T11:04:38.698Z,40.64
2019-05-05T11:05:38.689Z,41.64
2019-05-05T11:06:38.721Z,39.90
2019-05-05T11:07:38.680Z,39.60
2019-05-05T11:08:38.701Z,42.24
2019-05-05T11:09:38.641Z,40.01
2019-05-05T11:10:38.642Z,41.25
2019-05-05T11:11:39.683Z,41.80
2019-05-05T11:12:38.615Z,41.91
2019-05-05T11:13:38.643Z,45.09
2019-05-05T11:14:38.595Z,45.80
2019-05-05T11:15:38.586Z,44.29
2019-05-05T11:16:38.575Z,46.72
2019-05-05T11:17:39.636Z,46.72
2019-05-05T11:18:38.546Z,43.88
2019-05-05T11:19:38.556Z,43.88
2019-05-05T11:20:38.519Z,45.83
2019-05-05T11:21:38.518Z,44.08
2019-05-05T11:22:39.578Z,45.21
2019-05-05T11:23:38.491Z,45.18
2019-05-05T11:24:38.489Z,43.57
2019-05-05T11:25:38.459Z,45.42
2019-05-05T11:26:38.498Z,47.03
2019-05-05T11:27:38.500Z,45.27
2019-05-05T11:28:38.431Z,45.56
2019-05-05T11:29:38.432Z,42.79
2019-05-05T11:30:38.412Z,43.51
2019-05-05T11:31:38.404Z,44.32
2019-05-05T11:32:38.404Z,43.40
2019-05-05T11:33:38.403Z,42.26
2019-05-05T11:34:38.364Z,43.49
2019-05-05T11:35:38.445Z,42.55
2019-05-05T11:36:38.335Z,41.40
2019-05-05T11:37:38.416Z,44.04
2019-05-05T11:38:41.325Z,40.65
2019-05-05T11:39:38.417Z,43.10
2019-05-05T11:40:38.287Z,39.85
2019-05-05T11:41:38.350Z,39.24
2019-05-05T11:42:38.289Z,40.56
2019-05-05T11:43:38.288Z,39.34
2019-05-05T11:44:38.229Z,40.05
2019-05-05T11:45:38.320Z,39.03
2019-05-05T11:46:38.230Z,39.03
2019-05-05T11:47:38.231Z,38.52
2019-05-05T11:48:38.195Z,39.75
2019-05-05T11:49:38.291Z,40.95
2019-05-05T11:50:38.197Z,39.42
2019-05-05T11:51:38.233Z,42.65
2019-05-05T11:52:38.183Z,42.83
2019-05-05T11:53:38.895Z,38.64
2019-05-05T11:54:38.275Z,37.72
2019-05-05T11:55:38.295Z,37.51
2019-05-05T11:56:38.106Z,35.20
2019-05-05T11:57:38.186Z,38.14
2019-05-05T11:58:38.208Z,36.94
2019-05-05T11:59:38.086Z,38.60
2019-05-05T12:00:38.210Z,38.34
2019-05-05T12:01:38.289Z,40.89
2019-05-05T12:02:38.071Z,40.42
2019-05-05T12:03:38.320Z,40.01
2019-05-05T12:04:38.020Z,40.31
2019-05-05T12:05:38.180Z,39.60
2019-05-05T12:06:38.002Z,39.50
2019-05-05T12:07:38.071Z,38.78
2019-05-05T12:08:37.971Z,41.03
2019-05-05T12:09:37.972Z,40.30
2019-05-05T12:10:39.052Z,40.91
2019-05-05T12:11:37.944Z,38.76
2019-05-05T12:12:38.004Z,40.60
2019-05-05T12:13:37.915Z,42.32
2019-05-05T12:14:39.948Z,40.05
2019-05-05T12:15:37.905Z,42.00
2019-05-05T12:16:37.936Z,38.40
2019-05-05T12:17:37.884Z,38.30
2019-05-05T12:18:37.976Z,38.46
2019-05-05T12:19:37.857Z,37.35
2019-05-05T12:20:37.838Z,37.23
2019-05-05T12:21:37.828Z,37.41
2019-05-05T12:22:38.058Z,36.19
2019-05-05T12:23:37.809Z,36.17
2019-05-05T12:24:38.900Z,37.12
2019-05-05T12:25:37.770Z,37.12
2019-05-05T12:26:37.811Z,36.55
2019-05-05T12:27:37.878Z,37.57
2019-05-05T12:28:37.854Z,36.34
2019-05-05T12:29:37.733Z,38.18
2019-05-05T12:30:37.783Z,37.14
2019-05-05T12:31:37.754Z,39.67
2019-05-05T12:32:37.705Z,39.06
2019-05-05T12:33:37.815Z,38.14
2019-05-05T12:34:37.685Z,38.37
2019-05-05T12:35:37.727Z,37.85
2019-05-05T12:36:37.656Z,38.08
2019-05-05T12:37:37.759Z,37.57
2019-05-05T12:38:37.657Z,37.89
2019-05-05T12:39:37.698Z,40.34
2019-05-05T12:40:37.609Z,40.32
2019-05-05T12:41:38.650Z,39.73
2019-05-05T12:42:37.600Z,38.28
2019-05-05T12:43:38.640Z,40.12
2019-05-05T12:44:37.560Z,38.39
2019-05-05T12:45:37.603Z,38.79
2019-05-05T12:46:37.541Z,38.39
2019-05-05T12:47:37.542Z,38.40
2019-05-05T12:48:37.534Z,39.22
2019-05-05T12:49:37.573Z,39.32
2019-05-05T12:50:37.506Z,41.85
2019-05-05T12:51:37.514Z,40.32
2019-05-05T12:52:37.474Z,38.50